Pickering, Canada
Current Conditions -  °F | °C
As of 4:00 PM on Friday 28 Nov 2014 (Local Time) from CYKZ Reporting Station
Snow Showers Snow Showers  
Wind Chill: 17°   Ceiling: 3000
Heat Index: 27°   Visibility: 14mi
Dew Point: 12°   Wind: 9mph
Humidity: 55%   Direction: 260°W
Pressure: 30.19"   Gusts: NA
Location:  43.84°N, 79.08°W
Report Text: CYKZ 282100Z 26008KT 14SM -SHSN BKN030 BKN130 M03/M11 A3019 RMKSC7AC1 VERT CLDS EMBD AC TR SLP234
Loading
Personal Weather Stations






























Interactive Weather Map New forecast layout! Learn more

10-Day Weather Forecast

Advertisements
Track Severe Weather on mobile